WetterOnline ( https://www.wetteronline.de )

Wetter aktuell Vacha

Aktuelles Wetter: Bad Hersfeld (273m)

6-stündlich | Neueste Meldungen
Ortszeit Temperatur Wetter
Do, 29.10. 19:00 9.6° C Sprühregen
Do, 29.10. 13:00 10.9° C bewölkt
Do, 29.10. 7:00 9.2° C leichter Regen
Do, 29.10. 1:00 9.7° C leichter Regen
Mi, 28.10. 19:00 11.0° C bewölkt
Mi, 28.10. 13:00 12.1° C bedeckt
Mi, 28.10. 7:00 8.4° C Sprühregen
Mi, 28.10. 1:00 9.4° C bedeckt
Ortszeit Temperatur Wetter
Fr, 30.10. 0:00 9.2° C leichter Regen
Do, 29.10. 23:30 8.9° C leichter Regen
Do, 29.10. 23:20 8.9° C leichter Regen
Do, 29.10. 23:10 8.9° C leichter Regen
Do, 29.10. 23:00 8.7° C leichter Regen
Do, 29.10. 22:50 8.7° C leichter Regen
Do, 29.10. 22:30 8.8° C leichter Regen
Do, 29.10. 22:00 8.8° C leichter Regen
Ortszeit Relative Feuchte Sichtweite
Do, 29.10. 19:00 83% 17 km
Do, 29.10. 13:00 61% 55 km
Do, 29.10. 7:00 81% 30 km
Do, 29.10. 1:00 90% 15 km
Mi, 28.10. 19:00 73% 60 km
Mi, 28.10. 13:00 82% 30 km
Mi, 28.10. 7:00 95% 5.0 km
Mi, 28.10. 1:00 68% 60 km
Ortszeit Relative Feuchte Sichtweite
Fr, 30.10. 0:00 95% 12 km
Do, 29.10. 23:30 95% 15 km
Do, 29.10. 23:20 95% -
Do, 29.10. 23:10 94% -
Do, 29.10. 23:00 95% 16 km
Do, 29.10. 22:50 95% -
Do, 29.10. 22:30 93% 15 km
Do, 29.10. 22:00 94% 12 km
Ortszeit Niederschlagsmenge Niederschlagsart
Do, 29.10. 19:00 0.1 l/m2 in 12 Std. Regen
Do, 29.10. 13:00 0.1 l/m2 in 6 Std. Regen
Do, 29.10. 7:00 3 l/m2 in 12 Std. Regen
Do, 29.10. 1:00 1 l/m2 in 6 Std. Regen
Mi, 28.10. 19:00 0.5 l/m2 in 12 Std. Regen
Mi, 28.10. 13:00 0.5 l/m2 in 6 Std. Regen
Mi, 28.10. 7:00 0.8 l/m2 in 12 Std. Regen
Mi, 28.10. 1:00 0.1 l/m2 in 6 Std. Regen
Ortszeit Niederschlagsmenge Niederschlagsart
Fr, 30.10. 0:00 keine Meldung -
Do, 29.10. 23:30 0.7 l/m2 in 1 Std. -
Do, 29.10. 23:20 keine Meldung -
Do, 29.10. 23:10 keine Meldung -
Do, 29.10. 23:00 0.8 l/m2 in 1 Std. Regen
Do, 29.10. 22:50 keine Meldung -
Do, 29.10. 22:30 0.4 l/m2 in 1 Std. -
Do, 29.10. 22:00 0.5 l/m2 in 1 Std. Regen
Ortszeit Stärke Spitze Richtung
km/h Bft. km/h Grad Sektor
Do, 29.10. 19:00 14 3 36 210° SW
Do, 29.10. 13:00 18 3 47 250° W
Do, 29.10. 7:00 22 4 47 240° SW
Do, 29.10. 1:00 28 4 43 180° S
Mi, 28.10. 19:00 18 3 36 190° S
Mi, 28.10. 13:00 14 3 36 190° S
Mi, 28.10. 7:00 15 3 41 180° S
Mi, 28.10. 1:00 20 4 41 190° S
Ortszeit Stärke Spitze Richtung
km/h Bft. km/h Grad Sektor
Fr, 30.10. 0:00 22 4 36 180° S
Do, 29.10. 23:30 18 3 29 180° S
Do, 29.10. 23:20 18 3 - 180° S
Do, 29.10. 23:10 18 3 - 190° S
Do, 29.10. 23:00 15 3 28 190° S
Do, 29.10. 22:50 15 3 - 190° S
Do, 29.10. 22:30 18 3 25 180° S
Do, 29.10. 22:00 11 2 25 190° S
Ortszeit Untergrenze Bedeckung Gattung
total tief tief mittel hoch
Do, 29.10. 19:00 930 m 8/8 8/8 - - -
Do, 29.10. 13:00 990 m 7/8 7/8 - - -
Do, 29.10. 7:00 60 m 8/8 8/8 - - -
Do, 29.10. 1:00 930 m 7/8 7/8 - - -
Mi, 28.10. 19:00 1260 m 8/8 7/8 - - -
Mi, 28.10. 13:00 330 m 8/8 8/8 - - -
Mi, 28.10. 7:00 240 m 7/8 7/8 - - -
Mi, 28.10. 1:00 840 m 8/8 8/8 - - -
Ortszeit Bedeckungsgrad in Achtel und Wolkenuntergrenze
Fr, 30.10. 0:00 7(540m) 8(810m)
Do, 29.10. 23:30 3(540m) 7(990m) 7(1500m)
Do, 29.10. 23:20 3(540m) 7(990m) 7(1500m)
Do, 29.10. 23:10 2(540m) 6(1230m) 7(1800m)
Do, 29.10. 23:00 2(630m) 4(1140m) 8(1800m)
Do, 29.10. 22:50 2(630m) 4(1140m) 8(1800m)
Do, 29.10. 22:30 2(720m) 8(960m) 8(1800m)
Do, 29.10. 22:00 5(1140m) 6(1320m) 8(1800m)
Ortszeit Luftdruck NN (hPa) Tendenz (hPa in 3 Std.)
Do, 29.10. 19:00 1020 + 1,4
Do, 29.10. 13:00 1017 + 1,8
Do, 29.10. 7:00 1012 + 1,6
Do, 29.10. 1:00 1010 - 1,6
Mi, 28.10. 19:00 1012 + 0,9
Mi, 28.10. 13:00 1011 + 0,3
Mi, 28.10. 7:00 1009 + 0,7
Mi, 28.10. 1:00 1008 - 0,5
Ortszeit Luftdruck NN (hPa) Tendenz (hPa in 3 Std.)
Fr, 30.10. 0:00 1018 - 1,5
Do, 29.10. 23:30 1019 - 1,2
Do, 29.10. 23:20 1019 keine Meldung
Do, 29.10. 23:10 1019 keine Meldung
Do, 29.10. 23:00 1019 - 0,7
Do, 29.10. 22:50 1019 keine Meldung
Do, 29.10. 22:30 1020 - 0,4
Do, 29.10. 22:00 1020 0,0
Ortszeit Schneehöhe (cm)
Do, 29.10. 19:00 0
Do, 29.10. 13:00 0
Do, 29.10. 7:00 0
Do, 29.10. 1:00 0
Mi, 28.10. 19:00 0
Mi, 28.10. 13:00 0
Mi, 28.10. 7:00 0
Mi, 28.10. 1:00 0
Ortszeit Schneehöhe (cm)
Fr, 30.10. 0:00 -
Do, 29.10. 23:30 0
Do, 29.10. 23:20 0
Do, 29.10. 23:10 0
Do, 29.10. 23:00 0
Do, 29.10. 22:50 0
Do, 29.10. 22:30 0
Do, 29.10. 22:00 0
Link zu dieser Seite / Seite empfehlen

Das Wetter in ...